Time;durP1;ratioP1;P1;durP2;ratioP2;P2;SDS_P1;SDS_P2;PMS_P1;PMS_P2;Temp;Humidity;BMP_temperature;BMP_pressure;BME280_temperature;BME280_humidity;BME280_pressure;Samples;Min_cycle;Max_cycle;Signal;HPM_P1;HPM_P2
2021/07/01 00:02:23;;;;;;;209.90;44.73;;;;;;;;;;3566968;40;20041;-65
2021/07/01 00:04:48;;;;;;;230.57;39.23;;;;;;;;;;3567069;40;20037;-65
2021/07/01 00:07:14;;;;;;;195.27;52.17;;;;;;;;;;3566557;40;20037;-65
2021/07/01 00:09:39;;;;;;;376.57;226.77;;;;;;;;;;3564752;40;20079;-65
2021/07/01 00:12:04;;;;;;;280.30;149.57;;;;;;;;;;3565023;40;20025;-65
2021/07/01 00:14:29;;;;;;;256.57;125.30;;;;;;;;;;3563755;40;20111;-66
2021/07/01 00:16:55;;;;;;;255.43;117.17;;;;;;;;;;3565927;40;20065;-65
2021/07/01 00:19:20;;;;;;;269.52;125.32;;;;;;;;;;3567506;40;20018;-65
2021/07/01 00:21:45;;;;;;;232.43;66.57;;;;;;;;;;3566938;40;20078;-65
2021/07/01 00:24:10;;;;;;;254.13;82.50;;;;;;;;;;3567113;40;20045;-65
2021/07/01 00:26:37;;;;;;;238.43;92.63;;;;;;;;;;3565598;40;20045;-65
2021/07/01 00:29:02;;;;;;;328.52;205.00;;;;;;;;;;3563723;40;20268;-65
2021/07/01 00:31:27;;;;;;;231.57;109.70;;;;;;;;;;3562404;40;20130;-65
2021/07/01 00:33:52;;;;;;;215.05;66.03;;;;;;;;;;3561067;40;20989;-65
2021/07/01 00:36:17;;;;;;;199.17;35.97;;;;;;;;;;3559594;40;20546;-65
2021/07/01 00:38:43;;;;;;;168.20;32.67;;;;;;;;;;3559163;40;20489;-65
2021/07/01 00:41:08;;;;;;;175.03;33.77;;;;;;;;;;3559706;40;20053;-65
2021/07/01 00:43:34;;;;;;;169.85;33.35;;;;;;;;;;3566281;40;20045;-65
2021/07/01 00:45:59;;;;;;;179.18;33.95;;;;;;;;;;3566215;40;20041;-65
2021/07/01 00:48:25;;;;;;;183.60;34.70;;;;;;;;;;3566704;40;20025;-65
2021/07/01 00:50:50;;;;;;;169.35;33.17;;;;;;;;;;3565450;40;20033;-65
2021/07/01 00:53:16;;;;;;;134.23;30.05;;;;;;;;;;3566350;40;20032;-65
2021/07/01 00:55:41;;;;;;;144.47;30.40;;;;;;;;;;3566294;40;20033;-65
2021/07/01 00:58:06;;;;;;;154.30;32.03;;;;;;;;;;3566184;40;20040;-65
2021/07/01 01:03:15;;;;;;;235.50;39.95;;;;;;;;;;3562774;40;20037;-65
2021/07/01 01:05:40;;;;;;;214.70;39.17;;;;;;;;;;3560246;40;20146;-65
2021/07/01 01:08:06;;;;;;;207.13;37.58;;;;;;;;;;3560233;40;20593;-65
2021/07/01 01:10:31;;;;;;;186.40;39.13;;;;;;;;;;3558877;40;20613;-65
2021/07/01 01:13:32;;;;;;;195.02;35.00;;;;;;;;;;3563756;40;20049;-64
2021/07/01 01:16:35;;;;;;;138.93;28.05;;;;;;;;;;3565241;40;20055;-64
2021/07/01 01:19:03;;;;;;;164.50;30.08;;;;;;;;;;3567874;40;20038;-65
2021/07/01 01:21:29;;;;;;;209.85;34.45;;;;;;;;;;3567214;40;20336;-65
2021/07/01 01:23:55;;;;;;;205.85;33.53;;;;;;;;;;3562786;40;20146;-65
2021/07/01 01:26:21;;;;;;;187.82;32.78;;;;;;;;;;3568184;40;20541;-64
2021/07/01 01:28:47;;;;;;;198.57;74.90;;;;;;;;;;3560814;40;20104;-65
2021/07/01 01:31:12;;;;;;;154.27;29.87;;;;;;;;;;3567914;40;20041;-65
2021/07/01 01:33:38;;;;;;;226.93;87.13;;;;;;;;;;3567696;40;20040;-65
2021/07/01 01:36:03;;;;;;;158.60;27.60;;;;;;;;;;3565318;40;20057;-65
2021/07/01 01:38:29;;;;;;;165.30;29.13;;;;;;;;;;3567210;40;20025;-65
2021/07/01 01:41:07;;;;;;;147.27;27.08;;;;;;;;;;3567046;40;20034;-65
2021/07/01 01:43:32;;;;;;;169.75;28.63;;;;;;;;;;3568746;40;20069;-61
2021/07/01 01:45:59;;;;;;;166.98;28.02;;;;;;;;;;3568204;40;20041;-61
2021/07/01 01:48:24;;;;;;;175.33;30.87;;;;;;;;;;3563185;40;20354;-61
2021/07/01 01:50:49;;;;;;;198.47;34.70;;;;;;;;;;3568559;40;20345;-61
2021/07/01 01:53:15;;;;;;;156.07;27.10;;;;;;;;;;3567010;40;20033;-61
2021/07/01 01:55:40;;;;;;;163.15;28.50;;;;;;;;;;3568426;40;20056;-61
2021/07/01 01:58:06;;;;;;;177.65;28.95;;;;;;;;;;3569760;40;20033;-61
2021/07/01 02:00:54;;;;;;;166.95;28.42;;;;;;;;;;3568779;40;20121;-61
2021/07/01 02:03:20;;;;;;;176.07;29.27;;;;;;;;;;3572106;40;20045;-61
2021/07/01 02:06:04;;;;;;;151.57;26.98;;;;;;;;;;3570055;40;20418;-61
2021/07/01 02:08:30;;;;;;;201.85;32.78;;;;;;;;;;3566618;40;20041;-62
2021/07/01 02:10:57;;;;;;;199.55;46.65;;;;;;;;;;3570826;40;20049;-61
2021/07/01 02:13:22;;;;;;;190.48;46.03;;;;;;;;;;3568895;40;20048;-61
2021/07/01 02:16:26;;;;;;;187.77;30.63;;;;;;;;;;3560653;40;20331;-61
2021/07/01 02:18:52;;;;;;;168.60;28.00;;;;;;;;;;3569835;40;20037;-61
2021/07/01 02:21:18;;;;;;;165.38;28.23;;;;;;;;;;3568310;40;20044;-61
2021/07/01 02:23:44;;;;;;;150.38;26.90;;;;;;;;;;3570006;40;20041;-61
2021/07/01 02:26:09;;;;;;;192.83;31.33;;;;;;;;;;3570279;40;20130;-60
2021/07/01 02:28:35;;;;;;;172.15;28.92;;;;;;;;;;3570444;40;20262;-60
2021/07/01 02:31:18;;;;;;;167.80;28.70;;;;;;;;;;3561674;40;20051;-61
2021/07/01 02:33:43;;;;;;;143.13;25.93;;;;;;;;;;3566281;40;20037;-62
2021/07/01 02:36:09;;;;;;;172.27;28.80;;;;;;;;;;3571409;40;20655;-62
2021/07/01 02:38:53;;;;;;;169.63;28.75;;;;;;;;;;3568680;40;20136;-62
2021/07/01 02:41:18;;;;;;;160.32;26.50;;;;;;;;;;3567769;40;20057;-62
2021/07/01 02:43:46;;;;;;;146.32;25.48;;;;;;;;;;3569706;40;20497;-62
2021/07/01 02:46:30;;;;;;;154.02;25.67;;;;;;;;;;3568353;40;20063;-62
2021/07/01 02:48:55;;;;;;;178.57;28.17;;;;;;;;;;3570064;40;20311;-63
2021/07/01 02:51:21;;;;;;;181.35;27.65;;;;;;;;;;3569264;40;20049;-63
2021/07/01 02:53:51;;;;;;;155.88;23.13;;;;;;;;;;3570653;40;20145;-63
2021/07/01 02:56:18;;;;;;;169.95;25.42;;;;;;;;;;3567492;40;20284;-62
2021/07/01 02:58:43;;;;;;;149.52;23.25;;;;;;;;;;3568722;40;20130;-62
2021/07/01 03:01:27;;;;;;;116.38;19.15;;;;;;;;;;3566602;40;20048;-61
2021/07/01 03:03:54;;;;;;;132.52;20.77;;;;;;;;;;3569857;40;20063;-62
2021/07/01 03:06:20;;;;;;;136.50;20.17;;;;;;;;;;3568223;40;20041;-62
2021/07/01 03:08:46;;;;;;;142.32;19.60;;;;;;;;;;3565371;40;20375;-62
2021/07/01 03:11:11;;;;;;;129.77;19.13;;;;;;;;;;3562960;40;20511;-62
2021/07/01 03:13:36;;;;;;;114.67;18.00;;;;;;;;;;3568793;40;20039;-62
2021/07/01 03:16:07;;;;;;;115.57;17.77;;;;;;;;;;3572260;40;20137;-62
2021/07/01 03:18:33;;;;;;;129.88;18.88;;;;;;;;;;3563098;40;20430;-62
2021/07/01 03:21:17;;;;;;;143.93;19.98;;;;;;;;;;3561830;40;20307;-62
2021/07/01 03:23:51;;;;;;;120.97;19.40;;;;;;;;;;3569371;40;20029;-62
2021/07/01 03:26:16;;;;;;;130.82;21.23;;;;;;;;;;3570350;40;20028;-62
2021/07/01 03:28:42;;;;;;;165.03;23.50;;;;;;;;;;3566852;40;20029;-62
2021/07/01 03:31:07;;;;;;;127.70;19.70;;;;;;;;;;3571375;40;20034;-62
2021/07/01 03:33:33;;;;;;;129.52;18.95;;;;;;;;;;3562933;40;20280;-62
2021/07/01 03:35:59;;;;;;;145.73;20.20;;;;;;;;;;3559235;40;20036;-62
2021/07/01 03:38:43;;;;;;;104.20;14.82;;;;;;;;;;3564777;40;20049;-62
2021/07/01 03:41:37;;;;;;;133.48;17.65;;;;;;;;;;3564926;40;20048;-62
2021/07/01 03:44:03;;;;;;;123.22;16.05;;;;;;;;;;3567782;40;20104;-61
2021/07/01 03:46:29;;;;;;;127.65;16.33;;;;;;;;;;3568951;40;20760;-62
2021/07/01 03:48:54;;;;;;;117.03;14.85;;;;;;;;;;3567764;40;20391;-62
2021/07/01 03:51:38;;;;;;;105.57;14.18;;;;;;;;;;3562214;40;20387;-62
2021/07/01 03:54:16;;;;;;;72.20;10.05;;;;;;;;;;3568426;40;20516;-62
2021/07/01 03:56:41;;;;;;;108.35;13.25;;;;;;;;;;3565558;40;20029;-62
2021/07/01 03:59:11;;;;;;;128.88;14.93;;;;;;;;;;3568145;40;20036;-61
2021/07/01 04:01:55;;;;;;;116.30;13.57;;;;;;;;;;3568632;40;20347;-61
2021/07/01 04:04:21;;;;;;;130.98;15.27;;;;;;;;;;3567446;40;20033;-62
2021/07/01 04:06:47;;;;;;;118.57;14.40;;;;;;;;;;3567679;40;20036;-62
2021/07/01 04:09:12;;;;;;;142.97;16.57;;;;;;;;;;3566826;40;20259;-61
2021/07/01 04:11:50;;;;;;;120.93;13.52;;;;;;;;;;3566694;40;20789;-62
2021/07/01 04:14:18;;;;;;;154.13;18.63;;;;;;;;;;3569196;40;20040;-64
2021/07/01 04:17:01;;;;;;;143.80;16.10;;;;;;;;;;3561783;40;20087;-62
2021/07/01 04:19:45;;;;;;;217.95;24.90;;;;;;;;;;3565256;40;20040;-62
2021/07/01 04:22:29;;;;;;;115.18;13.02;;;;;;;;;;3568243;40;20052;-62
2021/07/01 04:25:13;;;;;;;109.25;12.57;;;;;;;;;;3570720;40;20796;-62
2021/07/01 04:27:42;;;;;;;121.68;13.50;;;;;;;;;;3569037;40;20028;-61
2021/07/01 04:30:07;;;;;;;113.32;12.52;;;;;;;;;;3566745;40;20041;-62
2021/07/01 04:32:52;;;;;;;112.65;12.73;;;;;;;;;;3566853;40;20057;-62
2021/07/01 04:35:18;;;;;;;106.38;11.55;;;;;;;;;;3570364;40;20482;-62
2021/07/01 04:37:43;;;;;;;90.82;10.23;;;;;;;;;;3569901;40;20033;-62
2021/07/01 04:40:10;;;;;;;86.38;9.93;;;;;;;;;;3567606;40;20414;-62
2021/07/01 04:42:39;;;;;;;102.28;11.60;;;;;;;;;;3566136;40;20191;-61
2021/07/01 04:45:04;;;;;;;78.93;9.30;;;;;;;;;;3570483;40;20735;-62
2021/07/01 04:47:29;;;;;;;95.07;11.27;;;;;;;;;;3568608;40;20033;-62
2021/07/01 04:50:02;;;;;;;93.32;10.82;;;;;;;;;;3567699;40;20427;-62
2021/07/01 04:52:30;;;;;;;116.97;12.85;;;;;;;;;;3565679;40;20054;-62
2021/07/01 04:55:15;;;;;;;97.65;11.15;;;;;;;;;;3557233;40;20340;-62
2021/07/01 04:58:01;;;;;;;86.55;10.10;;;;;;;;;;3557215;40;20057;-61
2021/07/01 05:00:26;;;;;;;63.47;8.45;;;;;;;;;;3568468;40;20147;-62
2021/07/01 05:03:10;;;;;;;84.97;10.13;;;;;;;;;;3569546;40;20069;-62
2021/07/01 05:05:38;;;;;;;85.78;11.30;;;;;;;;;;3570607;40;20030;-62
2021/07/01 05:08:04;;;;;;;80.10;9.18;;;;;;;;;;3569094;40;20056;-62
2021/07/01 05:10:29;;;;;;;102.65;11.30;;;;;;;;;;3567958;40;20390;-67
2021/07/01 05:13:06;;;;;;;95.35;9.93;;;;;;;;;;3568116;40;20041;-66
2021/07/01 05:15:31;;;;;;;71.97;8.30;;;;;;;;;;3569472;40;20056;-67
2021/07/01 05:18:02;;;;;;;114.35;12.23;;;;;;;;;;3576683;40;20037;-67
2021/07/01 05:20:28;;;;;;;96.05;10.48;;;;;;;;;;3569941;40;20037;-66
2021/07/01 05:23:13;;;;;;;110.95;11.45;;;;;;;;;;3556814;40;20159;-67
2021/07/01 05:25:57;;;;;;;93.00;10.52;;;;;;;;;;3569372;40;20044;-67
2021/07/01 05:28:41;;;;;;;88.50;10.30;;;;;;;;;;3570079;40;20118;-67
2021/07/01 05:31:25;;;;;;;104.18;11.27;;;;;;;;;;3568130;40;20408;-67
2021/07/01 05:34:19;;;;;;;115.93;12.38;;;;;;;;;;3568002;40;20142;-67
2021/07/01 05:36:45;;;;;;;108.60;12.13;;;;;;;;;;3569863;40;20498;-67
2021/07/01 05:39:14;;;;;;;100.68;11.35;;;;;;;;;;3568417;40;20030;-67
2021/07/01 05:41:42;;;;;;;102.55;11.35;;;;;;;;;;3569886;40;20029;-67
2021/07/01 05:44:07;;;;;;;101.37;11.10;;;;;;;;;;3569354;40;20733;-67
2021/07/01 05:46:45;;;;;;;101.22;11.75;;;;;;;;;;3567892;40;20319;-67
2021/07/01 05:49:12;;;;;;;91.70;10.53;;;;;;;;;;3563321;40;20135;-67
2021/07/01 05:51:37;;;;;;;101.72;11.38;;;;;;;;;;3569455;40;20024;-67
2021/07/01 05:54:19;;;;;;;103.47;11.43;;;;;;;;;;3567314;40;20084;-67
2021/07/01 05:56:45;;;;;;;128.85;13.27;;;;;;;;;;3569222;40;20030;-67
2021/07/01 05:59:10;;;;;;;106.50;11.80;;;;;;;;;;3569675;40;20033;-67
2021/07/01 06:01:36;;;;;;;101.07;11.37;;;;;;;;;;3569991;40;20036;-67
2021/07/01 06:04:01;;;;;;;23.20;7.00;;;;;;;;;;3570694;40;20342;-67
2021/07/01 06:06:46;;;;;;;16.85;5.97;;;;;;;;;;3570087;40;20069;-67
2021/07/01 06:09:21;;;;;;;20.25;6.60;;;;;;;;;;3570972;40;20656;-68
2021/07/01 06:11:46;;;;;;;19.67;6.00;;;;;;;;;;3565455;40;20052;-67
2021/07/01 06:14:11;;;;;;;39.27;7.47;;;;;;;;;;3567991;40;20398;-67
2021/07/01 06:16:36;;;;;;;23.43;7.30;;;;;;;;;;3567339;40;20045;-67
2021/07/01 06:19:03;;;;;;;24.00;7.00;;;;;;;;;;3574828;40;20295;-67
2021/07/01 06:21:28;;;;;;;18.77;6.53;;;;;;;;;;3567221;40;20025;-67
2021/07/01 06:23:54;;;;;;;27.10;7.68;;;;;;;;;;3565477;40;20035;-66
2021/07/01 06:26:25;;;;;;;27.10;7.13;;;;;;;;;;3569545;40;20036;-67
2021/07/01 06:28:50;;;;;;;36.97;7.97;;;;;;;;;;3569023;40;20618;-67
2021/07/01 06:31:15;;;;;;;62.80;11.03;;;;;;;;;;3566288;40;20035;-67
2021/07/01 06:33:42;;;;;;;98.67;11.13;;;;;;;;;;3569302;40;20032;-67
2021/07/01 06:36:08;;;;;;;78.25;9.35;;;;;;;;;;3569328;40;20025;-67
2021/07/01 06:38:58;;;;;;;79.82;9.55;;;;;;;;;;3565385;40;20049;-67
2021/07/01 06:41:42;;;;;;;71.47;9.10;;;;;;;;;;3568129;40;20326;-67
2021/07/01 06:44:26;;;;;;;100.40;10.68;;;;;;;;;;3567531;40;20044;-66
2021/07/01 06:47:11;;;;;;;108.35;11.43;;;;;;;;;;3566845;40;20044;-66
2021/07/01 06:49:54;;;;;;;106.00;12.07;;;;;;;;;;3564680;40;20170;-66
2021/07/01 06:52:52;;;;;;;96.05;11.85;;;;;;;;;;3554913;40;20427;-66
2021/07/01 06:55:36;;;;;;;128.20;21.15;;;;;;;;;;3564075;40;20101;-66
2021/07/01 06:58:12;;;;;;;94.47;12.98;;;;;;;;;;3563448;40;20089;-66
2021/07/01 07:00:37;;;;;;;90.80;10.57;;;;;;;;;;3569157;40;20052;-67
2021/07/01 07:03:03;;;;;;;67.30;8.13;;;;;;;;;;3568009;40;20277;-67
2021/07/01 07:05:28;;;;;;;86.03;10.07;;;;;;;;;;3572739;40;20465;-67
2021/07/01 07:07:54;;;;;;;83.47;9.50;;;;;;;;;;3565315;40;20264;-68
2021/07/01 07:10:19;;;;;;;93.70;10.40;;;;;;;;;;3566224;40;20699;-68
2021/07/01 07:12:46;;;;;;;94.80;10.90;;;;;;;;;;3568094;40;20048;-68
2021/07/01 07:15:11;;;;;;;77.47;9.35;;;;;;;;;;3567064;40;20756;-68
2021/07/01 07:17:37;;;;;;;102.25;14.35;;;;;;;;;;3559992;40;20033;-68
2021/07/01 07:20:02;;;;;;;105.18;13.70;;;;;;;;;;3565203;40;20043;-68
2021/07/01 07:22:28;;;;;;;95.53;10.73;;;;;;;;;;3564630;40;20134;-61
2021/07/01 07:24:56;;;;;;;85.50;9.77;;;;;;;;;;3567797;40;20393;-62
2021/07/01 07:27:22;;;;;;;99.82;11.43;;;;;;;;;;3561759;40;20177;-61
2021/07/01 07:29:47;;;;;;;121.90;15.70;;;;;;;;;;3562346;40;20778;-62
2021/07/01 07:32:12;;;;;;;95.37;11.00;;;;;;;;;;3568963;40;20609;-61
2021/07/01 07:34:37;;;;;;;68.87;11.43;;;;;;;;;;3568971;40;20041;-61
2021/07/01 07:37:03;;;;;;;94.67;11.20;;;;;;;;;;3562219;40;20030;-61
2021/07/01 07:39:29;;;;;;;85.25;11.25;;;;;;;;;;3563713;40;20029;-61
2021/07/01 07:41:54;;;;;;;84.20;11.35;;;;;;;;;;3564505;40;20114;-61
2021/07/01 07:44:20;;;;;;;104.10;12.57;;;;;;;;;;3566405;40;20033;-62
2021/07/01 07:46:45;;;;;;;87.60;10.88;;;;;;;;;;3562682;40;20031;-61
2021/07/01 07:49:10;;;;;;;90.30;10.70;;;;;;;;;;3563708;40;20111;-62
2021/07/01 07:51:36;;;;;;;96.53;12.20;;;;;;;;;;3563800;40;20040;-64
2021/07/01 07:54:01;;;;;;;77.80;9.90;;;;;;;;;;3568451;40;20390;-63
2021/07/01 07:56:27;;;;;;;105.97;12.45;;;;;;;;;;3567464;40;20080;-67
2021/07/01 07:58:52;;;;;;;101.80;12.82;;;;;;;;;;3563659;40;20041;-67
2021/07/01 08:01:17;;;;;;;91.73;11.43;;;;;;;;;;3566423;40;20021;-68
2021/07/01 08:03:42;;;;;;;76.83;10.00;;;;;;;;;;3563174;40;20473;-67
2021/07/01 08:06:08;;;;;;;88.72;10.65;;;;;;;;;;3563980;40;20037;-67
2021/07/01 08:08:33;;;;;;;92.73;11.00;;;;;;;;;;3565547;40;20221;-67
2021/07/01 08:10:58;;;;;;;100.57;12.03;;;;;;;;;;3565470;40;20045;-67
2021/07/01 08:13:24;;;;;;;97.70;11.63;;;;;;;;;;3565794;40;20256;-67
2021/07/01 08:15:49;;;;;;;98.55;12.10;;;;;;;;;;3567197;40;20025;-67
2021/07/01 08:18:15;;;;;;;101.40;11.83;;;;;;;;;;3566944;40;20328;-67
2021/07/01 08:20:40;;;;;;;116.63;14.90;;;;;;;;;;3568902;40;20036;-67
2021/07/01 08:23:05;;;;;;;102.90;12.47;;;;;;;;;;3565352;40;20029;-67
2021/07/01 08:25:30;;;;;;;93.23;12.03;;;;;;;;;;3561631;40;20025;-67
2021/07/01 08:27:56;;;;;;;85.28;10.55;;;;;;;;;;3561446;40;20123;-67
2021/07/01 08:30:21;;;;;;;102.37;12.57;;;;;;;;;;3568843;40;20719;-67
2021/07/01 08:32:46;;;;;;;114.20;13.47;;;;;;;;;;3566776;40;20267;-67
2021/07/01 08:35:12;;;;;;;113.87;13.90;;;;;;;;;;3563928;40;20722;-67
2021/07/01 08:37:37;;;;;;;79.63;12.10;;;;;;;;;;3570062;40;20263;-67
2021/07/01 08:40:02;;;;;;;120.53;13.77;;;;;;;;;;3567726;40;20029;-67
2021/07/01 08:42:27;;;;;;;117.03;13.77;;;;;;;;;;3564088;40;21222;-67
2021/07/01 08:44:52;;;;;;;81.17;10.90;;;;;;;;;;3562610;40;20054;-67
2021/07/01 08:47:20;;;;;;;95.23;12.07;;;;;;;;;;3566221;40;20265;-67
2021/07/01 08:49:45;;;;;;;94.43;13.95;;;;;;;;;;3563690;40;20294;-67
2021/07/01 08:52:10;;;;;;;82.73;11.23;;;;;;;;;;3563198;40;20477;-67
2021/07/01 08:54:36;;;;;;;85.40;11.37;;;;;;;;;;3569411;40;20057;-67
2021/07/01 08:57:01;;;;;;;88.25;11.70;;;;;;;;;;3560094;40;20404;-67
2021/07/01 08:59:27;;;;;;;99.05;12.07;;;;;;;;;;3564811;40;20031;-68
2021/07/01 09:01:52;;;;;;;83.13;10.73;;;;;;;;;;3564001;40;20037;-67
2021/07/01 09:04:17;;;;;;;81.23;10.47;;;;;;;;;;3562282;40;20665;-68
2021/07/01 09:06:42;;;;;;;88.80;11.65;;;;;;;;;;3565881;40;20259;-68
2021/07/01 09:09:08;;;;;;;82.40;11.17;;;;;;;;;;3567084;40;20425;-67
2021/07/01 09:11:33;;;;;;;85.20;13.50;;;;;;;;;;3568882;40;20044;-67
2021/07/01 09:13:58;;;;;;;64.13;10.37;;;;;;;;;;3567800;40;20115;-67
2021/07/01 09:16:23;;;;;;;87.15;12.43;;;;;;;;;;3567999;40;20040;-67
2021/07/01 09:18:49;;;;;;;111.07;27.03;;;;;;;;;;3564738;40;20085;-67
2021/07/01 09:21:14;;;;;;;80.90;12.68;;;;;;;;;;3564657;40;20044;-67
2021/07/01 09:23:45;;;;;;;74.95;12.60;;;;;;;;;;3570219;40;20033;-68
2021/07/01 09:26:10;;;;;;;86.88;12.85;;;;;;;;;;3561063;40;20037;-68
2021/07/01 09:28:35;;;;;;;89.13;12.85;;;;;;;;;;3562992;40;20029;-67
2021/07/01 09:31:01;;;;;;;88.40;12.98;;;;;;;;;;3564231;40;20153;-68
2021/07/01 09:33:26;;;;;;;65.13;11.33;;;;;;;;;;3564270;40;20041;-67
2021/07/01 09:35:52;;;;;;;71.53;11.80;;;;;;;;;;3569051;40;20261;-67
2021/07/01 09:38:18;;;;;;;64.53;10.70;;;;;;;;;;3567096;40;20110;-67
2021/07/01 09:40:43;;;;;;;92.13;13.77;;;;;;;;;;3562150;40;20037;-68
2021/07/01 09:43:08;;;;;;;77.57;12.97;;;;;;;;;;3570382;40;20150;-67
2021/07/01 09:45:33;;;;;;;73.63;12.67;;;;;;;;;;3565154;40;20026;-68
2021/07/01 09:47:59;;;;;;;77.03;12.40;;;;;;;;;;3566072;40;20341;-67
2021/07/01 09:50:27;;;;;;;79.37;12.27;;;;;;;;;;3563723;40;20287;-67
2021/07/01 09:52:52;;;;;;;88.88;13.75;;;;;;;;;;3564519;40;20026;-67
2021/07/01 09:55:17;;;;;;;95.50;14.53;;;;;;;;;;3562059;40;20040;-69
2021/07/01 09:57:42;;;;;;;69.50;11.70;;;;;;;;;;3564843;40;20064;-67
2021/07/01 10:00:07;;;;;;;70.87;11.93;;;;;;;;;;3561178;40;20316;-68
2021/07/01 10:02:38;;;;;;;76.93;12.82;;;;;;;;;;3564144;40;20044;-67
2021/07/01 10:05:04;;;;;;;86.82;14.15;;;;;;;;;;3569285;40;20053;-68
2021/07/01 10:07:29;;;;;;;81.73;13.77;;;;;;;;;;3566816;40;20045;-67
2021/07/01 10:09:54;;;;;;;74.73;13.70;;;;;;;;;;3567089;40;20037;-67
2021/07/01 10:12:19;;;;;;;70.97;13.95;;;;;;;;;;3565358;40;20033;-70
2021/07/01 10:14:45;;;;;;;66.33;12.23;;;;;;;;;;3568827;40;20029;-71
2021/07/01 10:17:10;;;;;;;93.70;16.40;;;;;;;;;;3570087;40;20361;-70
2021/07/01 10:19:35;;;;;;;89.93;18.43;;;;;;;;;;3573519;40;20279;-70
2021/07/01 10:22:01;;;;;;;80.13;15.40;;;;;;;;;;3567410;40;20296;-70
2021/07/01 10:24:29;;;;;;;86.93;16.15;;;;;;;;;;3566506;40;20338;-70
2021/07/01 10:26:54;;;;;;;86.10;17.15;;;;;;;;;;3567520;40;20768;-73
2021/07/01 10:29:20;;;;;;;93.67;16.47;;;;;;;;;;3565540;40;20033;-71
2021/07/01 10:31:45;;;;;;;83.23;16.43;;;;;;;;;;3562600;40;20431;-71
2021/07/01 10:34:10;;;;;;;86.72;17.30;;;;;;;;;;3563741;40;20311;-69
2021/07/01 10:36:36;;;;;;;87.00;16.00;;;;;;;;;;3564536;40;20033;-69
2021/07/01 10:39:01;;;;;;;92.67;17.80;;;;;;;;;;3567104;40;20418;-67
2021/07/01 10:41:26;;;;;;;97.47;17.60;;;;;;;;;;3567421;40;20707;-68
2021/07/01 10:43:52;;;;;;;70.80;15.23;;;;;;;;;;3565996;40;20283;-68
2021/07/01 10:46:17;;;;;;;91.43;16.25;;;;;;;;;;3565653;40;20073;-68
2021/07/01 10:48:43;;;;;;;89.18;16.20;;;;;;;;;;3568132;40;20040;-69
2021/07/01 10:51:09;;;;;;;81.85;15.98;;;;;;;;;;3565091;40;20045;-68
2021/07/01 10:53:34;;;;;;;82.83;17.87;;;;;;;;;;3565013;40;20033;-68
2021/07/01 10:56:00;;;;;;;75.10;15.05;;;;;;;;;;3567077;40;20310;-70
2021/07/01 10:58:25;;;;;;;101.18;17.73;;;;;;;;;;3565567;40;20323;-68
2021/07/01 11:00:50;;;;;;;74.63;15.80;;;;;;;;;;3565657;40;20022;-69
2021/07/01 11:03:15;;;;;;;70.90;14.55;;;;;;;;;;3564989;40;20512;-69
2021/07/01 11:05:41;;;;;;;90.87;15.73;;;;;;;;;;3560857;40;20025;-69
2021/07/01 11:08:06;;;;;;;80.87;14.50;;;;;;;;;;3568406;40;20463;-67
2021/07/01 11:10:31;;;;;;;71.37;14.00;;;;;;;;;;3567579;40;20757;-67
2021/07/01 11:12:56;;;;;;;74.27;14.00;;;;;;;;;;3565458;40;20043;-67
2021/07/01 11:15:21;;;;;;;67.83;13.43;;;;;;;;;;3567375;40;20041;-66
2021/07/01 11:17:47;;;;;;;58.73;13.47;;;;;;;;;;3566711;40;20532;-67
2021/07/01 11:20:12;;;;;;;80.83;14.47;;;;;;;;;;3563155;40;20033;-67
2021/07/01 11:22:37;;;;;;;85.97;14.73;;;;;;;;;;3559378;40;20545;-67
2021/07/01 11:25:02;;;;;;;85.00;14.87;;;;;;;;;;3563513;40;20036;-61
2021/07/01 11:27:28;;;;;;;85.30;14.70;;;;;;;;;;3566888;40;20029;-61
2021/07/01 11:29:53;;;;;;;69.27;13.47;;;;;;;;;;3566502;40;20490;-62
2021/07/01 11:32:18;;;;;;;61.73;13.57;;;;;;;;;;3565405;40;20436;-61
2021/07/01 11:34:44;;;;;;;48.47;12.18;;;;;;;;;;3566215;40;20032;-61
2021/07/01 11:37:09;;;;;;;70.63;14.43;;;;;;;;;;3564032;40;20407;-62
2021/07/01 11:39:34;;;;;;;63.43;13.20;;;;;;;;;;3559525;40;20529;-61
2021/07/01 11:42:05;;;;;;;65.32;13.63;;;;;;;;;;3567140;40;20291;-61
2021/07/01 11:44:31;;;;;;;71.25;15.07;;;;;;;;;;3566132;40;20126;-62
2021/07/01 11:46:56;;;;;;;79.13;16.07;;;;;;;;;;3567878;40;20033;-61
2021/07/01 11:49:21;;;;;;;49.87;15.07;;;;;;;;;;3566589;40;20041;-61
2021/07/01 11:51:46;;;;;;;83.40;17.30;;;;;;;;;;3562294;40;20040;-61
2021/07/01 11:54:12;;;;;;;89.80;16.90;;;;;;;;;;3567538;40;20264;-61
2021/07/01 11:59:21;;;;;;;95.97;19.15;;;;;;;;;;3567297;40;20135;-61
2021/07/01 12:01:46;;;;;;;87.47;18.92;;;;;;;;;;3564383;40;20041;-61
2021/07/01 12:04:11;;;;;;;77.83;17.33;;;;;;;;;;3567626;40;20130;-61
2021/07/01 12:06:36;;;;;;;88.37;18.50;;;;;;;;;;3567327;40;20593;-61
2021/07/01 12:09:02;;;;;;;83.77;17.50;;;;;;;;;;3565564;40;20410;-62
2021/07/01 12:11:27;;;;;;;82.03;16.80;;;;;;;;;;3567305;40;20077;-62
2021/07/01 12:13:52;;;;;;;77.93;16.20;;;;;;;;;;3566422;40;20925;-62
2021/07/01 12:16:17;;;;;;;91.55;17.48;;;;;;;;;;3564975;40;20541;-62
2021/07/01 12:18:43;;;;;;;76.77;15.07;;;;;;;;;;3564135;40;20029;-62
2021/07/01 12:21:08;;;;;;;85.18;17.02;;;;;;;;;;3563858;40;20951;-62
2021/07/01 12:23:33;;;;;;;80.67;16.90;;;;;;;;;;3567406;40;20114;-62
2021/07/01 12:26:01;;;;;;;79.10;16.58;;;;;;;;;;3568539;40;20185;-61
2021/07/01 12:28:27;;;;;;;75.45;16.45;;;;;;;;;;3562080;40;20017;-62
2021/07/01 12:30:55;;;;;;;71.97;16.55;;;;;;;;;;3558519;40;20026;-62
2021/07/01 12:33:20;;;;;;;72.18;17.13;;;;;;;;;;3559475;40;20029;-61
2021/07/01 12:35:45;;;;;;;60.67;16.33;;;;;;;;;;3566047;40;20068;-62
2021/07/01 12:38:10;;;;;;;69.00;15.93;;;;;;;;;;3564962;40;20769;-61
2021/07/01 12:40:35;;;;;;;71.10;15.97;;;;;;;;;;3570308;40;20033;-62
2021/07/01 12:43:01;;;;;;;69.93;16.67;;;;;;;;;;3561797;40;20310;-61
2021/07/01 12:45:26;;;;;;;76.03;21.97;;;;;;;;;;3569210;40;20169;-61
2021/07/01 12:47:51;;;;;;;76.53;17.63;;;;;;;;;;3568492;40;20041;-60
2021/07/01 12:50:16;;;;;;;71.60;16.20;;;;;;;;;;3564415;40;20784;-61
2021/07/01 12:52:42;;;;;;;104.22;17.70;;;;;;;;;;3562605;40;20370;-61
2021/07/01 12:55:07;;;;;;;78.72;17.55;;;;;;;;;;3562735;40;20029;-60
2021/07/01 12:57:33;;;;;;;76.40;16.83;;;;;;;;;;3564050;40;20090;-61
2021/07/01 12:59:59;;;;;;;59.90;14.57;;;;;;;;;;3564349;40;20030;-61
2021/07/01 13:02:25;;;;;;;81.15;17.58;;;;;;;;;;3559190;40;20033;-61
2021/07/01 13:04:50;;;;;;;79.60;17.75;;;;;;;;;;3561656;40;20066;-61
2021/07/01 13:07:15;;;;;;;76.33;16.73;;;;;;;;;;3563540;40;20311;-61
2021/07/01 13:09:42;;;;;;;75.13;19.42;;;;;;;;;;3562168;40;20053;-61
2021/07/01 13:12:07;;;;;;;54.55;13.63;;;;;;;;;;3564090;40;20082;-61
2021/07/01 13:14:33;;;;;;;77.87;16.40;;;;;;;;;;3565297;40;20200;-61
2021/07/01 13:16:58;;;;;;;70.55;15.43;;;;;;;;;;3562864;40;20029;-61
2021/07/01 13:19:23;;;;;;;79.47;16.13;;;;;;;;;;3565046;40;20044;-61
2021/07/01 13:21:49;;;;;;;75.03;14.70;;;;;;;;;;3566392;40;20036;-61
2021/07/01 13:24:14;;;;;;;75.17;15.27;;;;;;;;;;3561621;40;20077;-61
2021/07/01 13:26:39;;;;;;;81.45;15.90;;;;;;;;;;3565516;40;20028;-61
2021/07/01 13:29:04;;;;;;;65.88;13.45;;;;;;;;;;3565490;40;20025;-61
2021/07/01 13:31:30;;;;;;;60.90;13.07;;;;;;;;;;3565327;40;20041;-61
2021/07/01 13:33:55;;;;;;;75.63;15.50;;;;;;;;;;3561453;40;20749;-61
2021/07/01 13:36:20;;;;;;;73.30;14.43;;;;;;;;;;3568154;40;20731;-61
2021/07/01 13:38:45;;;;;;;72.87;14.13;;;;;;;;;;3564025;40;20709;-61
2021/07/01 13:41:10;;;;;;;65.50;13.00;;;;;;;;;;3564451;40;20314;-61
2021/07/01 13:43:36;;;;;;;58.57;12.20;;;;;;;;;;3566160;40;20627;-62
2021/07/01 13:46:01;;;;;;;55.53;12.00;;;;;;;;;;3566461;40;20544;-61
2021/07/01 13:48:28;;;;;;;46.80;11.47;;;;;;;;;;3572670;40;20217;-61
2021/07/01 13:50:53;;;;;;;61.67;12.30;;;;;;;;;;3570177;40;20399;-61
2021/07/01 13:53:19;;;;;;;63.33;12.27;;;;;;;;;;3570075;40;20041;-65
2021/07/01 13:55:44;;;;;;;64.30;12.93;;;;;;;;;;3568188;40;20271;-66
2021/07/01 13:58:09;;;;;;;59.42;12.38;;;;;;;;;;3567674;40;20036;-66
2021/07/01 14:00:36;;;;;;;59.72;12.05;;;;;;;;;;3564994;40;20029;-66
2021/07/01 14:03:02;;;;;;;76.45;13.98;;;;;;;;;;3562634;40;20025;-65
2021/07/01 14:05:27;;;;;;;66.67;12.73;;;;;;;;;;3567679;40;20430;-66
2021/07/01 14:07:52;;;;;;;73.70;12.55;;;;;;;;;;3562015;40;20297;-66
2021/07/01 14:10:18;;;;;;;78.90;12.25;;;;;;;;;;3559279;40;20049;-66
2021/07/01 14:12:43;;;;;;;43.60;9.70;;;;;;;;;;3564267;40;20524;-66
2021/07/01 14:15:08;;;;;;;57.93;11.13;;;;;;;;;;3562678;40;20049;-66
2021/07/01 14:17:33;;;;;;;96.33;13.07;;;;;;;;;;3563482;40;20052;-66
2021/07/01 14:19:58;;;;;;;97.23;13.33;;;;;;;;;;3565572;40;21101;-66
2021/07/01 14:22:24;;;;;;;60.75;11.20;;;;;;;;;;3566796;40;20042;-67